sensor_id;sensor_type;location;lat;lon;timestamp;P1;durP1;ratioP1;P2;durP2;ratioP2
30010;SDS011;16851;53.564;8.112;2024-01-15T00:02:03;6.50;;;1.23;;
30010;SDS011;16851;53.564;8.112;2024-01-15T00:07:05;10.80;;;1.97;;
30010;SDS011;16851;53.564;8.112;2024-01-15T00:12:08;8.23;;;1.87;;
30010;SDS011;16851;53.564;8.112;2024-01-15T00:17:12;6.50;;;1.33;;
30010;SDS011;16851;53.564;8.112;2024-01-15T00:22:14;11.00;;;1.80;;
30010;SDS011;16851;53.564;8.112;2024-01-15T00:27:18;9.00;;;1.93;;
30010;SDS011;16851;53.564;8.112;2024-01-15T00:32:20;12.57;;;2.27;;
30010;SDS011;16851;53.564;8.112;2024-01-15T00:37:22;19.37;;;2.33;;
30010;SDS011;16851;53.564;8.112;2024-01-15T00:42:27;20.37;;;2.77;;
30010;SDS011;16851;53.564;8.112;2024-01-15T00:47:28;13.87;;;2.93;;
30010;SDS011;16851;53.564;8.112;2024-01-15T00:52:30;16.87;;;3.07;;
30010;SDS011;16851;53.564;8.112;2024-01-15T00:57:32;20.73;;;2.90;;
30010;SDS011;16851;53.564;8.112;2024-01-15T01:02:34;24.03;;;3.17;;
30010;SDS011;16851;53.564;8.112;2024-01-15T01:07:36;20.93;;;3.77;;
30010;SDS011;16851;53.564;8.112;2024-01-15T01:12:40;19.50;;;2.70;;
30010;SDS011;16851;53.564;8.112;2024-01-15T01:17:42;18.10;;;2.80;;
30010;SDS011;16851;53.564;8.112;2024-01-15T01:22:44;16.33;;;2.17;;
30010;SDS011;16851;53.564;8.112;2024-01-15T01:27:48;19.67;;;2.63;;
30010;SDS011;16851;53.564;8.112;2024-01-15T01:32:50;16.30;;;2.53;;
30010;SDS011;16851;53.564;8.112;2024-01-15T01:37:52;22.43;;;2.80;;
30010;SDS011;16851;53.564;8.112;2024-01-15T01:42:54;16.13;;;2.40;;
30010;SDS011;16851;53.564;8.112;2024-01-15T01:47:56;17.20;;;2.63;;
30010;SDS011;16851;53.564;8.112;2024-01-15T01:53:01;22.00;;;3.77;;
30010;SDS011;16851;53.564;8.112;2024-01-15T01:58:05;23.33;;;3.60;;
30010;SDS011;16851;53.564;8.112;2024-01-15T02:03:10;17.20;;;3.43;;
30010;SDS011;16851;53.564;8.112;2024-01-15T02:08:13;26.53;;;4.20;;
30010;SDS011;16851;53.564;8.112;2024-01-15T02:13:15;29.10;;;4.83;;
30010;SDS011;16851;53.564;8.112;2024-01-15T02:18:19;28.53;;;4.37;;
30010;SDS011;16851;53.564;8.112;2024-01-15T02:23:24;33.60;;;5.20;;
30010;SDS011;16851;53.564;8.112;2024-01-15T02:28:28;26.17;;;3.83;;
30010;SDS011;16851;53.564;8.112;2024-01-15T02:33:33;30.47;;;4.33;;
30010;SDS011;16851;53.564;8.112;2024-01-15T02:38:39;40.33;;;4.63;;
30010;SDS011;16851;53.564;8.112;2024-01-15T02:43:43;31.27;;;4.70;;
30010;SDS011;16851;53.564;8.112;2024-01-15T02:48:45;24.40;;;4.50;;
30010;SDS011;16851;53.564;8.112;2024-01-15T02:53:48;31.43;;;4.17;;
30010;SDS011;16851;53.564;8.112;2024-01-15T02:58:53;41.47;;;5.03;;
30010;SDS011;16851;53.564;8.112;2024-01-15T03:03:55;39.33;;;5.73;;
30010;SDS011;16851;53.564;8.112;2024-01-15T03:08:59;35.47;;;5.43;;
30010;SDS011;16851;53.564;8.112;2024-01-15T03:14:05;47.93;;;6.10;;
30010;SDS011;16851;53.564;8.112;2024-01-15T03:19:07;40.60;;;5.90;;
30010;SDS011;16851;53.564;8.112;2024-01-15T03:24:09;34.43;;;5.37;;
30010;SDS011;16851;53.564;8.112;2024-01-15T03:29:11;31.97;;;5.53;;
30010;SDS011;16851;53.564;8.112;2024-01-15T03:34:15;34.13;;;5.40;;
30010;SDS011;16851;53.564;8.112;2024-01-15T03:39:17;29.00;;;4.73;;
30010;SDS011;16851;53.564;8.112;2024-01-15T03:44:19;23.00;;;3.87;;
30010;SDS011;16851;53.564;8.112;2024-01-15T03:49:23;31.87;;;4.47;;
30010;SDS011;16851;53.564;8.112;2024-01-15T03:54:25;23.97;;;3.87;;
30010;SDS011;16851;53.564;8.112;2024-01-15T03:59:30;28.23;;;4.30;;
30010;SDS011;16851;53.564;8.112;2024-01-15T04:04:40;23.50;;;4.13;;
30010;SDS011;16851;53.564;8.112;2024-01-15T04:09:45;22.00;;;4.17;;
30010;SDS011;16851;53.564;8.112;2024-01-15T04:14:50;22.27;;;5.03;;
30010;SDS011;16851;53.564;8.112;2024-01-15T04:19:52;23.07;;;4.33;;
30010;SDS011;16851;53.564;8.112;2024-01-15T04:24:54;30.53;;;4.37;;
30010;SDS011;16851;53.564;8.112;2024-01-15T04:29:56;33.83;;;3.80;;
30010;SDS011;16851;53.564;8.112;2024-01-15T04:35:00;23.20;;;4.37;;
30010;SDS011;16851;53.564;8.112;2024-01-15T04:40:02;31.87;;;4.53;;
30010;SDS011;16851;53.564;8.112;2024-01-15T04:45:06;24.53;;;3.90;;
30010;SDS011;16851;53.564;8.112;2024-01-15T04:50:11;29.43;;;4.27;;
30010;SDS011;16851;53.564;8.112;2024-01-15T04:55:17;22.70;;;3.40;;
30010;SDS011;16851;53.564;8.112;2024-01-15T05:00:21;19.23;;;3.07;;
30010;SDS011;16851;53.564;8.112;2024-01-15T05:05:25;12.50;;;1.80;;
30010;SDS011;16851;53.564;8.112;2024-01-15T05:10:27;15.47;;;3.07;;
30010;SDS011;16851;53.564;8.112;2024-01-15T05:15:29;23.07;;;3.33;;
30010;SDS011;16851;53.564;8.112;2024-01-15T05:20:36;13.20;;;2.20;;
30010;SDS011;16851;53.564;8.112;2024-01-15T05:25:38;16.67;;;2.80;;
30010;SDS011;16851;53.564;8.112;2024-01-15T05:30:40;15.67;;;2.90;;
30010;SDS011;16851;53.564;8.112;2024-01-15T05:35:42;19.37;;;3.07;;
30010;SDS011;16851;53.564;8.112;2024-01-15T05:40:44;15.07;;;2.90;;
30010;SDS011;16851;53.564;8.112;2024-01-15T05:45:46;16.17;;;2.90;;
30010;SDS011;16851;53.564;8.112;2024-01-15T05:50:48;5.13;;;1.37;;
30010;SDS011;16851;53.564;8.112;2024-01-15T05:55:50;26.80;;;3.90;;
30010;SDS011;16851;53.564;8.112;2024-01-15T06:00:52;8.60;;;1.50;;
30010;SDS011;16851;53.564;8.112;2024-01-15T06:05:55;5.83;;;1.50;;
30010;SDS011;16851;53.564;8.112;2024-01-15T06:10:59;5.53;;;1.10;;
30010;SDS011;16851;53.564;8.112;2024-01-15T06:16:03;7.93;;;1.50;;
30010;SDS011;16851;53.564;8.112;2024-01-15T06:21:14;13.93;;;1.70;;
30010;SDS011;16851;53.564;8.112;2024-01-15T06:26:22;8.33;;;1.63;;
30010;SDS011;16851;53.564;8.112;2024-01-15T06:31:29;13.30;;;2.27;;
30010;SDS011;16851;53.564;8.112;2024-01-15T06:36:31;18.73;;;3.13;;
30010;SDS011;16851;53.564;8.112;2024-01-15T06:41:33;10.53;;;1.93;;
30010;SDS011;16851;53.564;8.112;2024-01-15T06:46:35;13.33;;;2.17;;
30010;SDS011;16851;53.564;8.112;2024-01-15T06:51:37;15.53;;;1.90;;
30010;SDS011;16851;53.564;8.112;2024-01-15T06:56:39;10.40;;;1.67;;
30010;SDS011;16851;53.564;8.112;2024-01-15T07:01:41;15.00;;;2.43;;
30010;SDS011;16851;53.564;8.112;2024-01-15T07:06:43;11.40;;;1.87;;
30010;SDS011;16851;53.564;8.112;2024-01-15T07:11:45;10.43;;;1.73;;
30010;SDS011;16851;53.564;8.112;2024-01-15T07:16:50;11.00;;;1.97;;
30010;SDS011;16851;53.564;8.112;2024-01-15T07:21:52;8.73;;;1.70;;
30010;SDS011;16851;53.564;8.112;2024-01-15T07:26:59;9.87;;;1.97;;
30010;SDS011;16851;53.564;8.112;2024-01-15T07:32:02;11.10;;;2.13;;
30010;SDS011;16851;53.564;8.112;2024-01-15T07:37:04;15.03;;;2.43;;
30010;SDS011;16851;53.564;8.112;2024-01-15T07:42:05;14.73;;;2.60;;
30010;SDS011;16851;53.564;8.112;2024-01-15T07:47:09;21.07;;;3.10;;
30010;SDS011;16851;53.564;8.112;2024-01-15T07:52:11;14.70;;;2.00;;
30010;SDS011;16851;53.564;8.112;2024-01-15T07:57:17;17.90;;;3.07;;
30010;SDS011;16851;53.564;8.112;2024-01-15T08:02:21;12.10;;;2.93;;
30010;SDS011;16851;53.564;8.112;2024-01-15T08:07:25;17.10;;;2.60;;
30010;SDS011;16851;53.564;8.112;2024-01-15T08:12:29;14.87;;;2.40;;
30010;SDS011;16851;53.564;8.112;2024-01-15T08:17:31;19.47;;;2.93;;
30010;SDS011;16851;53.564;8.112;2024-01-15T08:22:36;17.40;;;3.07;;
30010;SDS011;16851;53.564;8.112;2024-01-15T08:27:38;11.87;;;2.33;;
30010;SDS011;16851;53.564;8.112;2024-01-15T08:32:40;22.83;;;3.10;;
30010;SDS011;16851;53.564;8.112;2024-01-15T08:37:44;19.00;;;3.13;;
30010;SDS011;16851;53.564;8.112;2024-01-15T08:42:46;19.73;;;3.03;;
30010;SDS011;16851;53.564;8.112;2024-01-15T08:47:48;12.00;;;2.37;;
30010;SDS011;16851;53.564;8.112;2024-01-15T08:52:50;18.27;;;2.80;;
30010;SDS011;16851;53.564;8.112;2024-01-15T08:57:54;15.87;;;2.43;;
30010;SDS011;16851;53.564;8.112;2024-01-15T09:02:58;15.87;;;2.20;;
30010;SDS011;16851;53.564;8.112;2024-01-15T09:08:00;11.60;;;2.00;;
30010;SDS011;16851;53.564;8.112;2024-01-15T09:13:04;9.00;;;2.10;;
30010;SDS011;16851;53.564;8.112;2024-01-15T09:18:08;13.23;;;2.43;;
30010;SDS011;16851;53.564;8.112;2024-01-15T09:23:13;13.63;;;2.17;;
30010;SDS011;16851;53.564;8.112;2024-01-15T09:28:15;16.47;;;2.10;;
30010;SDS011;16851;53.564;8.112;2024-01-15T09:33:22;14.60;;;2.30;;
30010;SDS011;16851;53.564;8.112;2024-01-15T09:38:24;15.00;;;1.97;;
30010;SDS011;16851;53.564;8.112;2024-01-15T09:43:26;12.50;;;2.10;;
30010;SDS011;16851;53.564;8.112;2024-01-15T09:48:33;13.80;;;2.30;;
30010;SDS011;16851;53.564;8.112;2024-01-15T09:53:40;9.80;;;1.90;;
30010;SDS011;16851;53.564;8.112;2024-01-15T09:58:43;10.17;;;2.07;;
30010;SDS011;16851;53.564;8.112;2024-01-15T10:03:50;10.13;;;2.40;;
30010;SDS011;16851;53.564;8.112;2024-01-15T10:08:54;16.10;;;2.10;;
30010;SDS011;16851;53.564;8.112;2024-01-15T10:13:59;14.00;;;2.10;;
30010;SDS011;16851;53.564;8.112;2024-01-15T10:19:02;15.10;;;2.77;;
30010;SDS011;16851;53.564;8.112;2024-01-15T10:24:04;15.70;;;2.43;;
30010;SDS011;16851;53.564;8.112;2024-01-15T10:29:06;10.23;;;2.50;;
30010;SDS011;16851;53.564;8.112;2024-01-15T10:34:12;13.07;;;2.40;;
30010;SDS011;16851;53.564;8.112;2024-01-15T10:39:21;16.23;;;2.40;;
30010;SDS011;16851;53.564;8.112;2024-01-15T10:44:27;14.70;;;2.23;;
30010;SDS011;16851;53.564;8.112;2024-01-15T10:49:28;10.43;;;1.93;;
30010;SDS011;16851;53.564;8.112;2024-01-15T10:54:34;6.83;;;2.17;;
30010;SDS011;16851;53.564;8.112;2024-01-15T10:59:37;10.23;;;1.80;;
30010;SDS011;16851;53.564;8.112;2024-01-15T11:04:39;11.03;;;2.30;;
30010;SDS011;16851;53.564;8.112;2024-01-15T11:09:43;5.97;;;1.40;;
30010;SDS011;16851;53.564;8.112;2024-01-15T11:14:48;7.77;;;2.00;;
30010;SDS011;16851;53.564;8.112;2024-01-15T11:19:51;5.40;;;1.80;;
30010;SDS011;16851;53.564;8.112;2024-01-15T11:24:56;5.57;;;1.23;;
30010;SDS011;16851;53.564;8.112;2024-01-15T11:30:03;5.57;;;1.53;;
30010;SDS011;16851;53.564;8.112;2024-01-15T11:35:08;9.53;;;2.03;;
30010;SDS011;16851;53.564;8.112;2024-01-15T11:40:17;10.00;;;1.73;;
30010;SDS011;16851;53.564;8.112;2024-01-15T11:45:20;11.37;;;1.90;;
30010;SDS011;16851;53.564;8.112;2024-01-15T11:50:24;6.50;;;1.60;;
30010;SDS011;16851;53.564;8.112;2024-01-15T12:00:34;5.93;;;1.50;;
30010;SDS011;16851;53.564;8.112;2024-01-15T12:05:42;6.00;;;1.90;;
30010;SDS011;16851;53.564;8.112;2024-01-15T12:10:46;5.10;;;1.37;;
30010;SDS011;16851;53.564;8.112;2024-01-15T12:15:48;8.60;;;2.03;;
30010;SDS011;16851;53.564;8.112;2024-01-15T12:20:53;7.97;;;1.83;;
30010;SDS011;16851;53.564;8.112;2024-01-15T12:25:55;7.30;;;1.47;;
30010;SDS011;16851;53.564;8.112;2024-01-15T12:30:57;4.30;;;1.47;;
30010;SDS011;16851;53.564;8.112;2024-01-15T12:36:06;6.37;;;1.43;;
30010;SDS011;16851;53.564;8.112;2024-01-15T12:41:09;9.83;;;1.50;;
30010;SDS011;16851;53.564;8.112;2024-01-15T12:46:11;4.90;;;2.07;;
30010;SDS011;16851;53.564;8.112;2024-01-15T12:51:16;7.87;;;1.90;;
30010;SDS011;16851;53.564;8.112;2024-01-15T12:56:18;5.27;;;1.70;;
30010;SDS011;16851;53.564;8.112;2024-01-15T13:01:22;3.87;;;1.80;;
30010;SDS011;16851;53.564;8.112;2024-01-15T13:06:24;4.63;;;1.73;;
30010;SDS011;16851;53.564;8.112;2024-01-15T13:11:28;5.97;;;2.10;;
30010;SDS011;16851;53.564;8.112;2024-01-15T13:16:30;4.93;;;1.87;;
30010;SDS011;16851;53.564;8.112;2024-01-15T13:21:37;5.07;;;1.37;;
30010;SDS011;16851;53.564;8.112;2024-01-15T13:26:39;4.13;;;1.70;;
30010;SDS011;16851;53.564;8.112;2024-01-15T13:31:42;7.40;;;1.70;;
30010;SDS011;16851;53.564;8.112;2024-01-15T13:36:48;8.17;;;2.30;;
30010;SDS011;16851;53.564;8.112;2024-01-15T13:41:51;6.67;;;2.00;;
30010;SDS011;16851;53.564;8.112;2024-01-15T13:46:58;6.90;;;2.10;;
30010;SDS011;16851;53.564;8.112;2024-01-15T13:52:00;3.33;;;1.80;;
30010;SDS011;16851;53.564;8.112;2024-01-15T13:57:05;8.57;;;2.40;;
30010;SDS011;16851;53.564;8.112;2024-01-15T14:02:09;7.50;;;2.30;;
30010;SDS011;16851;53.564;8.112;2024-01-15T14:07:11;6.93;;;1.83;;
30010;SDS011;16851;53.564;8.112;2024-01-15T14:12:20;10.13;;;2.60;;
30010;SDS011;16851;53.564;8.112;2024-01-15T14:17:25;6.77;;;2.33;;
30010;SDS011;16851;53.564;8.112;2024-01-15T14:22:27;7.93;;;2.50;;
30010;SDS011;16851;53.564;8.112;2024-01-15T14:27:31;11.57;;;2.20;;
30010;SDS011;16851;53.564;8.112;2024-01-15T14:32:34;5.87;;;1.50;;
30010;SDS011;16851;53.564;8.112;2024-01-15T14:37:38;4.60;;;1.80;;
30010;SDS011;16851;53.564;8.112;2024-01-15T14:42:41;4.00;;;1.53;;
30010;SDS011;16851;53.564;8.112;2024-01-15T14:47:46;6.97;;;1.80;;
30010;SDS011;16851;53.564;8.112;2024-01-15T14:52:52;8.13;;;2.33;;
30010;SDS011;16851;53.564;8.112;2024-01-15T14:57:55;5.53;;;2.00;;
30010;SDS011;16851;53.564;8.112;2024-01-15T15:02:59;6.47;;;2.20;;
30010;SDS011;16851;53.564;8.112;2024-01-15T15:08:01;7.93;;;3.23;;
30010;SDS011;16851;53.564;8.112;2024-01-15T15:13:04;5.07;;;3.63;;
30010;SDS011;16851;53.564;8.112;2024-01-15T15:18:06;13.80;;;3.10;;
30010;SDS011;16851;53.564;8.112;2024-01-15T15:23:10;10.37;;;3.47;;
30010;SDS011;16851;53.564;8.112;2024-01-15T15:28:13;14.07;;;4.30;;
30010;SDS011;16851;53.564;8.112;2024-01-15T15:33:16;15.07;;;3.50;;
30010;SDS011;16851;53.564;8.112;2024-01-15T15:38:20;13.55;;;3.80;;
30010;SDS011;16851;53.564;8.112;2024-01-15T15:43:22;8.80;;;2.83;;
30010;SDS011;16851;53.564;8.112;2024-01-15T15:48:23;10.90;;;3.13;;
30010;SDS011;16851;53.564;8.112;2024-01-15T15:53:28;11.03;;;2.97;;
30010;SDS011;16851;53.564;8.112;2024-01-15T15:58:32;10.43;;;2.80;;
30010;SDS011;16851;53.564;8.112;2024-01-15T16:03:36;9.77;;;3.10;;
30010;SDS011;16851;53.564;8.112;2024-01-15T16:08:43;11.90;;;2.90;;
30010;SDS011;16851;53.564;8.112;2024-01-15T16:13:50;10.17;;;2.27;;
30010;SDS011;16851;53.564;8.112;2024-01-15T16:18:57;14.55;;;3.00;;
30010;SDS011;16851;53.564;8.112;2024-01-15T16:24:21;15.33;;;3.10;;
30010;SDS011;16851;53.564;8.112;2024-01-15T16:29:42;12.13;;;2.17;;
30010;SDS011;16851;53.564;8.112;2024-01-15T16:34:44;9.13;;;1.83;;
30010;SDS011;16851;53.564;8.112;2024-01-15T16:39:47;7.80;;;1.87;;
30010;SDS011;16851;53.564;8.112;2024-01-15T16:44:49;16.83;;;2.10;;
30010;SDS011;16851;53.564;8.112;2024-01-15T16:49:50;17.90;;;3.07;;
30010;SDS011;16851;53.564;8.112;2024-01-15T16:54:52;11.70;;;3.00;;
30010;SDS011;16851;53.564;8.112;2024-01-15T16:59:57;11.83;;;3.00;;
30010;SDS011;16851;53.564;8.112;2024-01-15T17:05:01;9.97;;;2.43;;
30010;SDS011;16851;53.564;8.112;2024-01-15T17:10:04;13.40;;;2.50;;
30010;SDS011;16851;53.564;8.112;2024-01-15T17:15:08;11.53;;;2.97;;
30010;SDS011;16851;53.564;8.112;2024-01-15T17:20:10;17.23;;;2.90;;
30010;SDS011;16851;53.564;8.112;2024-01-15T17:25:15;11.63;;;3.10;;
30010;SDS011;16851;53.564;8.112;2024-01-15T17:30:17;11.67;;;3.20;;
30010;SDS011;16851;53.564;8.112;2024-01-15T17:35:19;15.53;;;2.70;;
30010;SDS011;16851;53.564;8.112;2024-01-15T17:40:23;10.80;;;2.43;;
30010;SDS011;16851;53.564;8.112;2024-01-15T17:45:25;11.90;;;2.87;;
30010;SDS011;16851;53.564;8.112;2024-01-15T17:50:28;12.17;;;4.47;;
30010;SDS011;16851;53.564;8.112;2024-01-15T17:55:34;17.67;;;7.70;;
30010;SDS011;16851;53.564;8.112;2024-01-15T18:00:38;11.17;;;3.97;;
30010;SDS011;16851;53.564;8.112;2024-01-15T18:05:43;12.10;;;2.93;;
30010;SDS011;16851;53.564;8.112;2024-01-15T18:10:45;8.03;;;2.23;;
30010;SDS011;16851;53.564;8.112;2024-01-15T18:15:47;10.40;;;2.70;;
30010;SDS011;16851;53.564;8.112;2024-01-15T18:20:49;9.60;;;2.27;;
30010;SDS011;16851;53.564;8.112;2024-01-15T18:25:51;10.17;;;2.83;;
30010;SDS011;16851;53.564;8.112;2024-01-15T18:30:55;11.70;;;2.80;;
30010;SDS011;16851;53.564;8.112;2024-01-15T18:35:57;11.80;;;2.43;;
30010;SDS011;16851;53.564;8.112;2024-01-15T18:40:59;11.67;;;2.93;;
30010;SDS011;16851;53.564;8.112;2024-01-15T18:46:05;20.10;;;3.53;;
30010;SDS011;16851;53.564;8.112;2024-01-15T18:51:18;16.23;;;3.50;;
30010;SDS011;16851;53.564;8.112;2024-01-15T18:56:25;15.90;;;3.33;;
30010;SDS011;16851;53.564;8.112;2024-01-15T19:01:28;14.37;;;3.30;;
30010;SDS011;16851;53.564;8.112;2024-01-15T19:06:33;17.57;;;3.47;;
30010;SDS011;16851;53.564;8.112;2024-01-15T19:11:40;19.47;;;4.50;;
30010;SDS011;16851;53.564;8.112;2024-01-15T19:16:43;12.97;;;2.17;;
30010;SDS011;16851;53.564;8.112;2024-01-15T19:21:45;11.00;;;2.47;;
30010;SDS011;16851;53.564;8.112;2024-01-15T19:26:51;13.67;;;2.00;;
30010;SDS011;16851;53.564;8.112;2024-01-15T19:31:57;14.23;;;2.40;;
30010;SDS011;16851;53.564;8.112;2024-01-15T19:37:00;13.45;;;2.40;;
30010;SDS011;16851;53.564;8.112;2024-01-15T19:42:03;9.67;;;2.20;;
30010;SDS011;16851;53.564;8.112;2024-01-15T19:47:05;9.40;;;1.83;;
30010;SDS011;16851;53.564;8.112;2024-01-15T19:52:09;16.40;;;2.07;;
30010;SDS011;16851;53.564;8.112;2024-01-15T19:57:13;12.07;;;1.90;;
30010;SDS011;16851;53.564;8.112;2024-01-15T20:02:18;9.37;;;1.63;;
30010;SDS011;16851;53.564;8.112;2024-01-15T20:07:23;12.10;;;1.73;;
30010;SDS011;16851;53.564;8.112;2024-01-15T20:12:25;14.60;;;2.70;;
30010;SDS011;16851;53.564;8.112;2024-01-15T20:17:29;9.33;;;1.73;;
30010;SDS011;16851;53.564;8.112;2024-01-15T20:22:33;6.37;;;2.03;;
30010;SDS011;16851;53.564;8.112;2024-01-15T20:27:35;6.90;;;1.43;;
30010;SDS011;16851;53.564;8.112;2024-01-15T20:32:40;11.70;;;2.27;;
30010;SDS011;16851;53.564;8.112;2024-01-15T20:37:44;13.67;;;2.63;;
30010;SDS011;16851;53.564;8.112;2024-01-15T20:42:46;9.40;;;1.87;;
30010;SDS011;16851;53.564;8.112;2024-01-15T20:47:53;9.67;;;1.90;;
30010;SDS011;16851;53.564;8.112;2024-01-15T20:52:59;10.83;;;1.77;;
30010;SDS011;16851;53.564;8.112;2024-01-15T20:58:01;11.07;;;2.47;;
30010;SDS011;16851;53.564;8.112;2024-01-15T21:03:04;7.87;;;1.67;;
30010;SDS011;16851;53.564;8.112;2024-01-15T21:08:06;5.93;;;1.53;;
30010;SDS011;16851;53.564;8.112;2024-01-15T21:13:08;8.00;;;1.57;;
30010;SDS011;16851;53.564;8.112;2024-01-15T21:18:11;6.20;;;1.70;;
30010;SDS011;16851;53.564;8.112;2024-01-15T21:23:20;9.13;;;2.03;;
30010;SDS011;16851;53.564;8.112;2024-01-15T21:28:22;8.77;;;1.97;;
30010;SDS011;16851;53.564;8.112;2024-01-15T21:33:24;10.23;;;1.67;;
30010;SDS011;16851;53.564;8.112;2024-01-15T21:38:29;3.80;;;1.80;;
30010;SDS011;16851;53.564;8.112;2024-01-15T21:43:31;5.40;;;1.60;;
30010;SDS011;16851;53.564;8.112;2024-01-15T21:48:33;8.33;;;1.80;;
30010;SDS011;16851;53.564;8.112;2024-01-15T21:53:35;6.80;;;1.47;;
30010;SDS011;16851;53.564;8.112;2024-01-15T21:58:45;4.07;;;1.67;;
30010;SDS011;16851;53.564;8.112;2024-01-15T22:03:51;5.47;;;1.60;;
30010;SDS011;16851;53.564;8.112;2024-01-15T22:08:56;4.57;;;1.90;;
30010;SDS011;16851;53.564;8.112;2024-01-15T22:14:00;10.13;;;1.97;;
30010;SDS011;16851;53.564;8.112;2024-01-15T22:19:03;6.83;;;1.80;;
30010;SDS011;16851;53.564;8.112;2024-01-15T22:24:06;7.47;;;2.00;;
30010;SDS011;16851;53.564;8.112;2024-01-15T22:29:08;8.20;;;2.10;;
30010;SDS011;16851;53.564;8.112;2024-01-15T22:34:10;7.13;;;1.73;;
30010;SDS011;16851;53.564;8.112;2024-01-15T22:39:12;3.90;;;1.70;;
30010;SDS011;16851;53.564;8.112;2024-01-15T22:44:15;7.60;;;2.40;;
30010;SDS011;16851;53.564;8.112;2024-01-15T22:49:17;11.13;;;3.03;;
30010;SDS011;16851;53.564;8.112;2024-01-15T22:54:19;8.10;;;2.73;;
30010;SDS011;16851;53.564;8.112;2024-01-15T22:59:21;5.83;;;2.00;;
30010;SDS011;16851;53.564;8.112;2024-01-15T23:04:26;7.57;;;2.17;;
30010;SDS011;16851;53.564;8.112;2024-01-15T23:09:28;5.90;;;2.33;;
30010;SDS011;16851;53.564;8.112;2024-01-15T23:14:35;7.30;;;2.43;;
30010;SDS011;16851;53.564;8.112;2024-01-15T23:19:41;5.07;;;2.10;;
30010;SDS011;16851;53.564;8.112;2024-01-15T23:24:43;5.33;;;2.50;;
30010;SDS011;16851;53.564;8.112;2024-01-15T23:29:47;9.27;;;3.50;;
30010;SDS011;16851;53.564;8.112;2024-01-15T23:34:50;8.57;;;2.83;;
30010;SDS011;16851;53.564;8.112;2024-01-15T23:39:54;8.03;;;3.00;;
30010;SDS011;16851;53.564;8.112;2024-01-15T23:44:56;7.10;;;3.10;;
30010;SDS011;16851;53.564;8.112;2024-01-15T23:50:00;6.30;;;3.13;;
30010;SDS011;16851;53.564;8.112;2024-01-15T23:55:05;6.63;;;3.50;;
